This is the latest recevied weather packets stored in our database for station/object CE2LOH-10. If no packets are shown the sender has not sent any weather packets the latest 10 day(s).
| Time | Temp. | Humidity | Pressure | Rain* | Wind** | Luminosity | Snow |
|---|---|---|---|---|---|---|---|
| 1777739929 | 20.56° C | 45% | 992.6 hPa | - | - | - | - |
| 1777739028 | 20° C | 45% | 992.9 hPa | - | - | - | - |
| 1777738128 | 20° C | 47% | 993.1 hPa | - | - | - | - |
| 1777736328 | 18.33° C | 48% | 993.5 hPa | - | - | - | - |
| 1777735428 | 17.78° C | 50% | 993.5 hPa | - | - | - | - |
| 1777734528 | 17.22° C | 51% | 993.7 hPa | - | - | - | - |
| 1777733628 | 16.67° C | 51% | 993.9 hPa | - | - | - | - |
| 1777732728 | 16.11° C | 52% | 994.1 hPa | - | - | - | - |
| 1777731827 | 15.56° C | 52% | 994.2 hPa | - | - | - | - |
| 1777730927 | 15° C | 52% | 994.3 hPa | - | - | - | - |
| 1777730027 | 15° C | 52% | 994.4 hPa | - | - | - | - |
| 1777729127 | 14.44° C | 52% | 994.3 hPa | - | - | - | - |
| 1777728227 | 13.89° C | 51% | 994.3 hPa | - | - | - | - |
| 1777727327 | 13.33° C | 52% | 994.4 hPa | - | - | - | - |
| 1777725527 | 12.78° C | 52% | 994.4 hPa | - | - | - | - |
| 1777723726 | 12.78° C | 51% | 994.4 hPa | - | - | - | - |
| 1777721926 | 12.78° C | 51% | 994.5 hPa | - | - | - | - |
| 1777721026 | 12.78° C | 51% | 994.4 hPa | - | - | - | - |
| 1777720126 | 12.78° C | 51% | 994.3 hPa | - | - | - | - |
| 1777719226 | 12.78° C | 50% | 994.3 hPa | - | - | - | - |
| 1777718326 | 13.33° C | 51% | 994.4 hPa | - | - | - | - |
| 1777717425 | 13.33° C | 50% | 994.3 hPa | - | - | - | - |
| 1777716525 | 13.33° C | 50% | 994.2 hPa | - | - | - | - |
| 1777715625 | 13.33° C | 50% | 994.2 hPa | - | - | - | - |
| 1777714725 | 13.33° C | 50% | 994.2 hPa | - | - | - | - |
* Rain since midnight (hover to see other rain measurements)
** Current wind speed in m/s (hover to see current wind gust speed)